sensor_id;sensor_type;location;lat;lon;timestamp;P1;durP1;ratioP1;P2;durP2;ratioP2
20671;SDS011;10495;50.922;4.760;2022-12-18T00:03:47;44.27;;;23.20;;
20671;SDS011;10495;50.922;4.760;2022-12-18T00:06:14;44.83;;;23.77;;
20671;SDS011;10495;50.922;4.760;2022-12-18T00:08:40;41.70;;;23.57;;
20671;SDS011;10495;50.922;4.760;2022-12-18T00:11:07;45.53;;;23.40;;
20671;SDS011;10495;50.922;4.760;2022-12-18T00:13:35;47.77;;;24.13;;
20671;SDS011;10495;50.922;4.760;2022-12-18T00:16:05;46.13;;;22.93;;
20671;SDS011;10495;50.922;4.760;2022-12-18T00:18:32;44.83;;;22.83;;
20671;SDS011;10495;50.922;4.760;2022-12-18T00:20:58;49.50;;;26.30;;
20671;SDS011;10495;50.922;4.760;2022-12-18T00:23:25;45.03;;;25.03;;
20671;SDS011;10495;50.922;4.760;2022-12-18T00:25:51;52.63;;;27.50;;
20671;SDS011;10495;50.922;4.760;2022-12-18T00:28:17;54.77;;;26.70;;
20671;SDS011;10495;50.922;4.760;2022-12-18T00:30:42;53.47;;;25.40;;
20671;SDS011;10495;50.922;4.760;2022-12-18T00:33:08;47.73;;;25.57;;
20671;SDS011;10495;50.922;4.760;2022-12-18T00:35:34;46.00;;;23.53;;
20671;SDS011;10495;50.922;4.760;2022-12-18T00:37:59;45.07;;;25.23;;
20671;SDS011;10495;50.922;4.760;2022-12-18T00:40:25;47.43;;;24.93;;
20671;SDS011;10495;50.922;4.760;2022-12-18T00:42:50;50.13;;;24.83;;
20671;SDS011;10495;50.922;4.760;2022-12-18T00:45:26;47.47;;;25.63;;
20671;SDS011;10495;50.922;4.760;2022-12-18T00:47:53;48.33;;;25.87;;
20671;SDS011;10495;50.922;4.760;2022-12-18T00:50:20;46.77;;;26.10;;
20671;SDS011;10495;50.922;4.760;2022-12-18T00:52:46;51.50;;;25.87;;
20671;SDS011;10495;50.922;4.760;2022-12-18T00:55:12;45.70;;;24.47;;
20671;SDS011;10495;50.922;4.760;2022-12-18T00:57:38;39.00;;;21.70;;
20671;SDS011;10495;50.922;4.760;2022-12-18T01:00:04;43.33;;;22.30;;
20671;SDS011;10495;50.922;4.760;2022-12-18T01:02:30;42.63;;;21.47;;
20671;SDS011;10495;50.922;4.760;2022-12-18T01:04:56;42.20;;;21.23;;
20671;SDS011;10495;50.922;4.760;2022-12-18T01:07:22;37.57;;;20.63;;
20671;SDS011;10495;50.922;4.760;2022-12-18T01:09:47;43.47;;;21.90;;
20671;SDS011;10495;50.922;4.760;2022-12-18T01:12:13;38.60;;;20.83;;
20671;SDS011;10495;50.922;4.760;2022-12-18T01:14:38;38.77;;;20.03;;
20671;SDS011;10495;50.922;4.760;2022-12-18T01:17:04;42.77;;;20.70;;
20671;SDS011;10495;50.922;4.760;2022-12-18T01:19:30;37.20;;;19.60;;
20671;SDS011;10495;50.922;4.760;2022-12-18T01:21:55;40.43;;;20.87;;
20671;SDS011;10495;50.922;4.760;2022-12-18T01:24:21;40.00;;;20.90;;
20671;SDS011;10495;50.922;4.760;2022-12-18T01:26:47;40.67;;;19.47;;
20671;SDS011;10495;50.922;4.760;2022-12-18T01:29:13;42.37;;;19.83;;
20671;SDS011;10495;50.922;4.760;2022-12-18T01:31:38;38.60;;;20.50;;
20671;SDS011;10495;50.922;4.760;2022-12-18T01:34:04;42.23;;;20.63;;
20671;SDS011;10495;50.922;4.760;2022-12-18T01:36:31;37.80;;;20.43;;
20671;SDS011;10495;50.922;4.760;2022-12-18T01:38:59;37.17;;;19.07;;
20671;SDS011;10495;50.922;4.760;2022-12-18T01:41:27;39.23;;;20.77;;
20671;SDS011;10495;50.922;4.760;2022-12-18T01:47:26;39.57;;;21.30;;
20671;SDS011;10495;50.922;4.760;2022-12-18T01:50:26;38.63;;;20.80;;
20671;SDS011;10495;50.922;4.760;2022-12-18T01:55:43;38.97;;;20.47;;
20671;SDS011;10495;50.922;4.760;2022-12-18T01:58:15;41.43;;;20.87;;
20671;SDS011;10495;50.922;4.760;2022-12-18T02:00:41;43.77;;;21.57;;
20671;SDS011;10495;50.922;4.760;2022-12-18T02:03:07;36.20;;;19.23;;
20671;SDS011;10495;50.922;4.760;2022-12-18T02:05:43;38.80;;;20.20;;
20671;SDS011;10495;50.922;4.760;2022-12-18T02:08:22;36.50;;;19.77;;
20671;SDS011;10495;50.922;4.760;2022-12-18T02:17:07;41.87;;;20.60;;
20671;SDS011;10495;50.922;4.760;2022-12-18T02:25:11;36.53;;;19.87;;
20671;SDS011;10495;50.922;4.760;2022-12-18T02:27:53;39.10;;;19.07;;
20671;SDS011;10495;50.922;4.760;2022-12-18T02:30:21;37.80;;;19.93;;
20671;SDS011;10495;50.922;4.760;2022-12-18T02:32:50;40.53;;;20.27;;
20671;SDS011;10495;50.922;4.760;2022-12-18T02:35:22;36.63;;;19.67;;
20671;SDS011;10495;50.922;4.760;2022-12-18T02:37:49;37.93;;;19.23;;
20671;SDS011;10495;50.922;4.760;2022-12-18T02:40:16;40.20;;;20.37;;
20671;SDS011;10495;50.922;4.760;2022-12-18T02:42:43;38.40;;;19.17;;
20671;SDS011;10495;50.922;4.760;2022-12-18T02:45:08;40.50;;;21.20;;
20671;SDS011;10495;50.922;4.760;2022-12-18T02:47:36;38.90;;;20.03;;
20671;SDS011;10495;50.922;4.760;2022-12-18T03:01:15;35.63;;;18.73;;
20671;SDS011;10495;50.922;4.760;2022-12-18T03:03:47;38.93;;;19.60;;
20671;SDS011;10495;50.922;4.760;2022-12-18T03:06:26;40.97;;;19.83;;
20671;SDS011;10495;50.922;4.760;2022-12-18T03:08:57;37.50;;;18.70;;
20671;SDS011;10495;50.922;4.760;2022-12-18T03:11:28;41.30;;;17.80;;
20671;SDS011;10495;50.922;4.760;2022-12-18T03:14:16;35.70;;;19.73;;
20671;SDS011;10495;50.922;4.760;2022-12-18T03:16:46;32.20;;;18.17;;
20671;SDS011;10495;50.922;4.760;2022-12-18T03:19:18;34.67;;;18.10;;
20671;SDS011;10495;50.922;4.760;2022-12-18T03:21:47;37.47;;;19.07;;
20671;SDS011;10495;50.922;4.760;2022-12-18T03:24:19;36.70;;;18.73;;
20671;SDS011;10495;50.922;4.760;2022-12-18T03:26:46;34.90;;;16.73;;
20671;SDS011;10495;50.922;4.760;2022-12-18T03:29:21;34.53;;;16.90;;
20671;SDS011;10495;50.922;4.760;2022-12-18T03:31:56;31.37;;;16.23;;
20671;SDS011;10495;50.922;4.760;2022-12-18T03:34:30;33.77;;;18.00;;
20671;SDS011;10495;50.922;4.760;2022-12-18T03:36:57;34.50;;;17.80;;
20671;SDS011;10495;50.922;4.760;2022-12-18T03:39:23;38.13;;;19.17;;
20671;SDS011;10495;50.922;4.760;2022-12-18T03:44:39;32.17;;;17.07;;
20671;SDS011;10495;50.922;4.760;2022-12-18T03:47:19;31.93;;;15.87;;
20671;SDS011;10495;50.922;4.760;2022-12-18T03:50:14;35.13;;;17.17;;
20671;SDS011;10495;50.922;4.760;2022-12-18T03:52:46;28.03;;;15.80;;
20671;SDS011;10495;50.922;4.760;2022-12-18T03:55:20;33.50;;;16.40;;
20671;SDS011;10495;50.922;4.760;2022-12-18T03:57:48;31.50;;;15.03;;
20671;SDS011;10495;50.922;4.760;2022-12-18T04:00:16;29.23;;;15.97;;
20671;SDS011;10495;50.922;4.760;2022-12-18T04:02:53;34.50;;;16.10;;
20671;SDS011;10495;50.922;4.760;2022-12-18T04:05:21;28.97;;;14.57;;
20671;SDS011;10495;50.922;4.760;2022-12-18T04:07:49;29.47;;;16.53;;
20671;SDS011;10495;50.922;4.760;2022-12-18T04:10:16;32.13;;;15.57;;
20671;SDS011;10495;50.922;4.760;2022-12-18T04:12:42;33.37;;;16.27;;
20671;SDS011;10495;50.922;4.760;2022-12-18T04:15:08;29.77;;;15.03;;
20671;SDS011;10495;50.922;4.760;2022-12-18T04:17:35;31.13;;;16.83;;
20671;SDS011;10495;50.922;4.760;2022-12-18T04:20:00;28.97;;;15.37;;
20671;SDS011;10495;50.922;4.760;2022-12-18T04:22:26;34.33;;;16.40;;
20671;SDS011;10495;50.922;4.760;2022-12-18T04:24:52;33.97;;;15.97;;
20671;SDS011;10495;50.922;4.760;2022-12-18T04:27:17;36.80;;;17.27;;
20671;SDS011;10495;50.922;4.760;2022-12-18T04:29:43;28.60;;;15.57;;
20671;SDS011;10495;50.922;4.760;2022-12-18T04:32:09;31.40;;;16.30;;
20671;SDS011;10495;50.922;4.760;2022-12-18T04:34:35;29.57;;;15.47;;
20671;SDS011;10495;50.922;4.760;2022-12-18T04:37:00;26.63;;;14.33;;
20671;SDS011;10495;50.922;4.760;2022-12-18T04:39:26;30.90;;;15.97;;
20671;SDS011;10495;50.922;4.760;2022-12-18T04:41:52;28.17;;;17.03;;
20671;SDS011;10495;50.922;4.760;2022-12-18T04:44:17;28.97;;;15.20;;
20671;SDS011;10495;50.922;4.760;2022-12-18T04:46:43;29.60;;;16.33;;
20671;SDS011;10495;50.922;4.760;2022-12-18T04:49:09;33.00;;;15.97;;
20671;SDS011;10495;50.922;4.760;2022-12-18T04:51:35;26.67;;;14.97;;
20671;SDS011;10495;50.922;4.760;2022-12-18T04:54:02;32.70;;;16.60;;
20671;SDS011;10495;50.922;4.760;2022-12-18T04:56:28;33.33;;;17.87;;
20671;SDS011;10495;50.922;4.760;2022-12-18T04:58:55;30.80;;;15.80;;
20671;SDS011;10495;50.922;4.760;2022-12-18T05:01:20;32.37;;;16.13;;
20671;SDS011;10495;50.922;4.760;2022-12-18T05:03:46;27.87;;;14.07;;
20671;SDS011;10495;50.922;4.760;2022-12-18T05:06:12;24.67;;;13.83;;
20671;SDS011;10495;50.922;4.760;2022-12-18T05:08:37;32.93;;;15.20;;
20671;SDS011;10495;50.922;4.760;2022-12-18T05:11:04;28.23;;;15.47;;
20671;SDS011;10495;50.922;4.760;2022-12-18T05:13:32;28.20;;;15.17;;
20671;SDS011;10495;50.922;4.760;2022-12-18T05:15:58;30.97;;;15.60;;
20671;SDS011;10495;50.922;4.760;2022-12-18T05:18:23;24.80;;;14.17;;
20671;SDS011;10495;50.922;4.760;2022-12-18T05:20:50;31.80;;;15.97;;
20671;SDS011;10495;50.922;4.760;2022-12-18T05:23:17;25.00;;;14.13;;
20671;SDS011;10495;50.922;4.760;2022-12-18T05:25:52;26.00;;;14.23;;
20671;SDS011;10495;50.922;4.760;2022-12-18T05:28:17;28.57;;;14.50;;
20671;SDS011;10495;50.922;4.760;2022-12-18T05:30:50;27.33;;;14.80;;
20671;SDS011;10495;50.922;4.760;2022-12-18T05:33:20;21.87;;;12.53;;
20671;SDS011;10495;50.922;4.760;2022-12-18T05:35:50;26.57;;;14.07;;
20671;SDS011;10495;50.922;4.760;2022-12-18T05:38:17;25.30;;;12.67;;
20671;SDS011;10495;50.922;4.760;2022-12-18T05:40:44;27.03;;;14.40;;
20671;SDS011;10495;50.922;4.760;2022-12-18T05:43:10;23.03;;;12.83;;
20671;SDS011;10495;50.922;4.760;2022-12-18T05:45:39;21.13;;;12.60;;
20671;SDS011;10495;50.922;4.760;2022-12-18T05:48:05;26.53;;;13.17;;
20671;SDS011;10495;50.922;4.760;2022-12-18T05:50:33;25.70;;;13.40;;
20671;SDS011;10495;50.922;4.760;2022-12-18T05:53:00;23.73;;;13.10;;
20671;SDS011;10495;50.922;4.760;2022-12-18T05:55:26;27.63;;;13.73;;
20671;SDS011;10495;50.922;4.760;2022-12-18T05:57:51;23.27;;;13.23;;
20671;SDS011;10495;50.922;4.760;2022-12-18T06:00:17;25.37;;;14.33;;
20671;SDS011;10495;50.922;4.760;2022-12-18T06:02:46;25.20;;;14.30;;
20671;SDS011;10495;50.922;4.760;2022-12-18T06:05:12;30.67;;;15.67;;
20671;SDS011;10495;50.922;4.760;2022-12-18T06:07:37;29.40;;;15.17;;
20671;SDS011;10495;50.922;4.760;2022-12-18T06:10:03;28.07;;;14.30;;
20671;SDS011;10495;50.922;4.760;2022-12-18T06:12:29;26.13;;;14.13;;
20671;SDS011;10495;50.922;4.760;2022-12-18T06:14:54;29.40;;;14.63;;
20671;SDS011;10495;50.922;4.760;2022-12-18T06:17:20;27.53;;;14.60;;
20671;SDS011;10495;50.922;4.760;2022-12-18T06:19:45;25.70;;;14.17;;
20671;SDS011;10495;50.922;4.760;2022-12-18T06:22:11;28.67;;;14.53;;
20671;SDS011;10495;50.922;4.760;2022-12-18T06:24:36;33.67;;;16.57;;
20671;SDS011;10495;50.922;4.760;2022-12-18T06:27:02;32.03;;;15.60;;
20671;SDS011;10495;50.922;4.760;2022-12-18T06:29:28;33.43;;;15.43;;
20671;SDS011;10495;50.922;4.760;2022-12-18T06:31:53;27.23;;;13.97;;
20671;SDS011;10495;50.922;4.760;2022-12-18T06:34:19;27.47;;;14.63;;
20671;SDS011;10495;50.922;4.760;2022-12-18T06:36:44;24.90;;;13.53;;
20671;SDS011;10495;50.922;4.760;2022-12-18T06:39:10;32.83;;;15.10;;
20671;SDS011;10495;50.922;4.760;2022-12-18T06:41:36;27.93;;;14.63;;
20671;SDS011;10495;50.922;4.760;2022-12-18T06:44:01;27.77;;;14.17;;
20671;SDS011;10495;50.922;4.760;2022-12-18T06:46:27;24.87;;;13.30;;
20671;SDS011;10495;50.922;4.760;2022-12-18T06:48:52;27.37;;;14.00;;
20671;SDS011;10495;50.922;4.760;2022-12-18T06:51:19;23.97;;;13.27;;
20671;SDS011;10495;50.922;4.760;2022-12-18T06:53:46;25.80;;;13.97;;
20671;SDS011;10495;50.922;4.760;2022-12-18T06:56:11;25.77;;;14.77;;
20671;SDS011;10495;50.922;4.760;2022-12-18T06:58:37;27.23;;;15.43;;
20671;SDS011;10495;50.922;4.760;2022-12-18T07:01:05;26.13;;;14.30;;
20671;SDS011;10495;50.922;4.760;2022-12-18T07:03:31;25.87;;;13.90;;
20671;SDS011;10495;50.922;4.760;2022-12-18T07:05:57;27.63;;;14.50;;
20671;SDS011;10495;50.922;4.760;2022-12-18T07:08:24;27.10;;;14.03;;
20671;SDS011;10495;50.922;4.760;2022-12-18T07:10:50;32.77;;;16.50;;
20671;SDS011;10495;50.922;4.760;2022-12-18T07:13:15;35.17;;;16.53;;
20671;SDS011;10495;50.922;4.760;2022-12-18T07:15:41;31.93;;;15.63;;
20671;SDS011;10495;50.922;4.760;2022-12-18T07:18:07;27.17;;;15.53;;
20671;SDS011;10495;50.922;4.760;2022-12-18T07:20:33;30.63;;;15.23;;
20671;SDS011;10495;50.922;4.760;2022-12-18T07:22:58;27.77;;;13.60;;
20671;SDS011;10495;50.922;4.760;2022-12-18T07:25:26;28.67;;;13.87;;
20671;SDS011;10495;50.922;4.760;2022-12-18T07:27:52;29.67;;;15.13;;
20671;SDS011;10495;50.922;4.760;2022-12-18T07:30:17;28.43;;;13.87;;
20671;SDS011;10495;50.922;4.760;2022-12-18T07:32:43;26.90;;;14.57;;
20671;SDS011;10495;50.922;4.760;2022-12-18T07:35:09;30.30;;;14.90;;
20671;SDS011;10495;50.922;4.760;2022-12-18T07:37:34;25.33;;;14.07;;
20671;SDS011;10495;50.922;4.760;2022-12-18T07:40:00;28.10;;;14.57;;
20671;SDS011;10495;50.922;4.760;2022-12-18T07:42:25;26.67;;;13.43;;
20671;SDS011;10495;50.922;4.760;2022-12-18T07:44:58;24.50;;;14.20;;
20671;SDS011;10495;50.922;4.760;2022-12-18T07:47:25;26.57;;;13.13;;
20671;SDS011;10495;50.922;4.760;2022-12-18T07:49:50;31.67;;;14.57;;
20671;SDS011;10495;50.922;4.760;2022-12-18T07:52:16;30.90;;;14.03;;
20671;SDS011;10495;50.922;4.760;2022-12-18T07:54:42;29.07;;;14.57;;
20671;SDS011;10495;50.922;4.760;2022-12-18T07:57:07;29.07;;;15.00;;
20671;SDS011;10495;50.922;4.760;2022-12-18T07:59:33;29.57;;;16.40;;
20671;SDS011;10495;50.922;4.760;2022-12-18T08:01:59;28.50;;;15.47;;
20671;SDS011;10495;50.922;4.760;2022-12-18T08:04:25;32.10;;;16.43;;
20671;SDS011;10495;50.922;4.760;2022-12-18T08:06:51;32.80;;;16.20;;
20671;SDS011;10495;50.922;4.760;2022-12-18T08:09:17;25.30;;;14.13;;
20671;SDS011;10495;50.922;4.760;2022-12-18T08:11:42;30.70;;;16.13;;
20671;SDS011;10495;50.922;4.760;2022-12-18T08:14:08;30.93;;;17.20;;
20671;SDS011;10495;50.922;4.760;2022-12-18T08:16:34;37.27;;;19.97;;
20671;SDS011;10495;50.922;4.760;2022-12-18T08:19:00;29.17;;;17.10;;
20671;SDS011;10495;50.922;4.760;2022-12-18T08:21:27;31.53;;;16.93;;
20671;SDS011;10495;50.922;4.760;2022-12-18T08:23:55;28.83;;;15.73;;
20671;SDS011;10495;50.922;4.760;2022-12-18T08:26:24;31.03;;;15.23;;
20671;SDS011;10495;50.922;4.760;2022-12-18T08:28:50;30.20;;;15.73;;
20671;SDS011;10495;50.922;4.760;2022-12-18T08:31:17;29.50;;;15.27;;
20671;SDS011;10495;50.922;4.760;2022-12-18T08:33:44;29.17;;;15.93;;
20671;SDS011;10495;50.922;4.760;2022-12-18T08:36:10;34.27;;;16.87;;
20671;SDS011;10495;50.922;4.760;2022-12-18T08:38:36;29.50;;;15.73;;
20671;SDS011;10495;50.922;4.760;2022-12-18T08:41:05;30.37;;;15.20;;
20671;SDS011;10495;50.922;4.760;2022-12-18T08:43:32;29.13;;;14.37;;
20671;SDS011;10495;50.922;4.760;2022-12-18T08:46:17;23.83;;;13.10;;
20671;SDS011;10495;50.922;4.760;2022-12-18T08:48:44;24.70;;;12.90;;
20671;SDS011;10495;50.922;4.760;2022-12-18T08:51:09;25.33;;;14.80;;
20671;SDS011;10495;50.922;4.760;2022-12-18T08:53:36;25.77;;;13.70;;
20671;SDS011;10495;50.922;4.760;2022-12-18T08:56:02;28.90;;;14.83;;
20671;SDS011;10495;50.922;4.760;2022-12-18T08:58:28;22.90;;;13.07;;
20671;SDS011;10495;50.922;4.760;2022-12-18T09:00:59;25.07;;;13.20;;
20671;SDS011;10495;50.922;4.760;2022-12-18T09:03:28;24.60;;;12.60;;
20671;SDS011;10495;50.922;4.760;2022-12-18T09:05:53;23.50;;;13.10;;
20671;SDS011;10495;50.922;4.760;2022-12-18T09:08:19;20.70;;;12.30;;
20671;SDS011;10495;50.922;4.760;2022-12-18T09:10:45;25.93;;;12.53;;
20671;SDS011;10495;50.922;4.760;2022-12-18T09:13:11;19.37;;;11.63;;
20671;SDS011;10495;50.922;4.760;2022-12-18T09:18:11;21.90;;;13.07;;
20671;SDS011;10495;50.922;4.760;2022-12-18T09:20:38;20.73;;;11.93;;
20671;SDS011;10495;50.922;4.760;2022-12-18T09:23:04;27.00;;;13.57;;
20671;SDS011;10495;50.922;4.760;2022-12-18T09:25:30;29.17;;;13.87;;
20671;SDS011;10495;50.922;4.760;2022-12-18T09:28:01;25.97;;;14.87;;
20671;SDS011;10495;50.922;4.760;2022-12-18T09:30:38;27.30;;;13.67;;
20671;SDS011;10495;50.922;4.760;2022-12-18T09:33:04;23.17;;;12.03;;
20671;SDS011;10495;50.922;4.760;2022-12-18T09:35:30;20.50;;;11.43;;
20671;SDS011;10495;50.922;4.760;2022-12-18T09:37:55;22.73;;;10.70;;
20671;SDS011;10495;50.922;4.760;2022-12-18T09:40:22;20.23;;;11.50;;
20671;SDS011;10495;50.922;4.760;2022-12-18T09:42:52;18.87;;;11.43;;
20671;SDS011;10495;50.922;4.760;2022-12-18T09:45:24;21.57;;;11.87;;
20671;SDS011;10495;50.922;4.760;2022-12-18T09:47:50;22.33;;;11.30;;
20671;SDS011;10495;50.922;4.760;2022-12-18T09:50:26;17.37;;;10.67;;
20671;SDS011;10495;50.922;4.760;2022-12-18T09:52:59;21.70;;;11.10;;
20671;SDS011;10495;50.922;4.760;2022-12-18T09:55:36;19.20;;;10.60;;
20671;SDS011;10495;50.922;4.760;2022-12-18T10:00:38;23.70;;;11.00;;
20671;SDS011;10495;50.922;4.760;2022-12-18T10:03:11;19.97;;;8.97;;
20671;SDS011;10495;50.922;4.760;2022-12-18T10:10:50;19.07;;;10.43;;
20671;SDS011;10495;50.922;4.760;2022-12-18T10:13:31;16.90;;;9.77;;
20671;SDS011;10495;50.922;4.760;2022-12-18T10:19:04;16.00;;;10.20;;
20671;SDS011;10495;50.922;4.760;2022-12-18T10:21:41;17.13;;;10.37;;
20671;SDS011;10495;50.922;4.760;2022-12-18T10:26:49;20.27;;;11.37;;
20671;SDS011;10495;50.922;4.760;2022-12-18T10:29:16;19.53;;;10.57;;
20671;SDS011;10495;50.922;4.760;2022-12-18T10:31:42;20.67;;;10.37;;
20671;SDS011;10495;50.922;4.760;2022-12-18T10:34:11;17.93;;;11.10;;
20671;SDS011;10495;50.922;4.760;2022-12-18T10:36:37;18.37;;;10.63;;
20671;SDS011;10495;50.922;4.760;2022-12-18T10:39:20;20.63;;;10.73;;
20671;SDS011;10495;50.922;4.760;2022-12-18T10:41:47;20.07;;;11.27;;
20671;SDS011;10495;50.922;4.760;2022-12-18T10:44:20;16.97;;;10.47;;
20671;SDS011;10495;50.922;4.760;2022-12-18T10:46:48;21.67;;;12.70;;
20671;SDS011;10495;50.922;4.760;2022-12-18T10:49:33;44.80;;;24.80;;
20671;SDS011;10495;50.922;4.760;2022-12-18T10:52:04;21.77;;;13.60;;
20671;SDS011;10495;50.922;4.760;2022-12-18T10:54:54;22.97;;;13.27;;
20671;SDS011;10495;50.922;4.760;2022-12-18T10:59:55;25.60;;;13.97;;
20671;SDS011;10495;50.922;4.760;2022-12-18T11:02:35;24.57;;;14.70;;
20671;SDS011;10495;50.922;4.760;2022-12-18T11:05:26;17.60;;;10.77;;
20671;SDS011;10495;50.922;4.760;2022-12-18T11:07:55;20.10;;;13.10;;
20671;SDS011;10495;50.922;4.760;2022-12-18T11:10:25;22.90;;;13.23;;
20671;SDS011;10495;50.922;4.760;2022-12-18T11:13:18;19.27;;;12.07;;
20671;SDS011;10495;50.922;4.760;2022-12-18T11:15:46;25.77;;;15.23;;
20671;SDS011;10495;50.922;4.760;2022-12-18T11:21:07;27.23;;;16.33;;
20671;SDS011;10495;50.922;4.760;2022-12-18T11:23:43;30.50;;;16.03;;
20671;SDS011;10495;50.922;4.760;2022-12-18T11:26:14;32.77;;;18.10;;
20671;SDS011;10495;50.922;4.760;2022-12-18T11:28:46;25.67;;;15.23;;
20671;SDS011;10495;50.922;4.760;2022-12-18T11:33:50;27.00;;;15.87;;
20671;SDS011;10495;50.922;4.760;2022-12-18T11:36:39;69.03;;;38.37;;
20671;SDS011;10495;50.922;4.760;2022-12-18T11:39:17;35.47;;;21.13;;
20671;SDS011;10495;50.922;4.760;2022-12-18T11:42:01;19.00;;;12.23;;
20671;SDS011;10495;50.922;4.760;2022-12-18T11:44:50;23.47;;;13.40;;
20671;SDS011;10495;50.922;4.760;2022-12-18T11:50:13;21.80;;;13.93;;
20671;SDS011;10495;50.922;4.760;2022-12-18T11:52:44;25.13;;;14.03;;
20671;SDS011;10495;50.922;4.760;2022-12-18T11:55:11;23.80;;;13.63;;
20671;SDS011;10495;50.922;4.760;2022-12-18T11:57:58;36.30;;;21.47;;
20671;SDS011;10495;50.922;4.760;2022-12-18T12:00:56;24.07;;;14.63;;
20671;SDS011;10495;50.922;4.760;2022-12-18T12:19:29;36.93;;;22.37;;
20671;SDS011;10495;50.922;4.760;2022-12-18T12:22:24;117.07;;;56.40;;
20671;SDS011;10495;50.922;4.760;2022-12-18T12:25:06;61.97;;;33.03;;
20671;SDS011;10495;50.922;4.760;2022-12-18T12:30:19;30.63;;;19.53;;
20671;SDS011;10495;50.922;4.760;2022-12-18T12:35:52;34.43;;;20.30;;
20671;SDS011;10495;50.922;4.760;2022-12-18T12:40:59;33.03;;;19.43;;
20671;SDS011;10495;50.922;4.760;2022-12-18T12:43:42;36.33;;;22.37;;
20671;SDS011;10495;50.922;4.760;2022-12-18T12:46:13;35.90;;;21.60;;
20671;SDS011;10495;50.922;4.760;2022-12-18T12:48:45;31.73;;;19.20;;
20671;SDS011;10495;50.922;4.760;2022-12-18T12:51:17;31.67;;;19.87;;
20671;SDS011;10495;50.922;4.760;2022-12-18T12:53:56;25.93;;;15.43;;
20671;SDS011;10495;50.922;4.760;2022-12-18T12:56:24;23.50;;;14.63;;
20671;SDS011;10495;50.922;4.760;2022-12-18T12:58:59;23.20;;;14.63;;
20671;SDS011;10495;50.922;4.760;2022-12-18T13:02:16;24.03;;;15.60;;
20671;SDS011;10495;50.922;4.760;2022-12-18T13:07:05;26.20;;;16.17;;
20671;SDS011;10495;50.922;4.760;2022-12-18T13:12:57;26.63;;;15.77;;
20671;SDS011;10495;50.922;4.760;2022-12-18T13:15:39;24.13;;;14.50;;
20671;SDS011;10495;50.922;4.760;2022-12-18T13:20:36;25.87;;;15.97;;
20671;SDS011;10495;50.922;4.760;2022-12-18T13:23:19;23.60;;;15.60;;
20671;SDS011;10495;50.922;4.760;2022-12-18T13:25:48;22.93;;;16.03;;
20671;SDS011;10495;50.922;4.760;2022-12-18T13:28:15;36.57;;;20.30;;
20671;SDS011;10495;50.922;4.760;2022-12-18T13:30:56;26.03;;;14.83;;
20671;SDS011;10495;50.922;4.760;2022-12-18T13:43:20;22.03;;;13.17;;
20671;SDS011;10495;50.922;4.760;2022-12-18T13:48:32;20.90;;;11.93;;
20671;SDS011;10495;50.922;4.760;2022-12-18T13:56:15;21.53;;;13.03;;
20671;SDS011;10495;50.922;4.760;2022-12-18T13:58:43;23.77;;;12.53;;
20671;SDS011;10495;50.922;4.760;2022-12-18T14:01:22;22.67;;;12.53;;
20671;SDS011;10495;50.922;4.760;2022-12-18T14:03:48;23.30;;;12.77;;
20671;SDS011;10495;50.922;4.760;2022-12-18T14:06:33;23.27;;;13.10;;
20671;SDS011;10495;50.922;4.760;2022-12-18T14:08:59;19.00;;;12.13;;
20671;SDS011;10495;50.922;4.760;2022-12-18T14:11:25;26.77;;;14.97;;
20671;SDS011;10495;50.922;4.760;2022-12-18T14:13:51;26.20;;;15.23;;
20671;SDS011;10495;50.922;4.760;2022-12-18T14:16:17;24.73;;;13.97;;
20671;SDS011;10495;50.922;4.760;2022-12-18T14:18:44;23.60;;;14.03;;
20671;SDS011;10495;50.922;4.760;2022-12-18T14:21:18;31.87;;;21.17;;
20671;SDS011;10495;50.922;4.760;2022-12-18T14:24:03;25.47;;;14.73;;
20671;SDS011;10495;50.922;4.760;2022-12-18T14:26:31;20.67;;;13.40;;
20671;SDS011;10495;50.922;4.760;2022-12-18T14:28:59;24.53;;;13.47;;
20671;SDS011;10495;50.922;4.760;2022-12-18T14:31:27;20.17;;;11.43;;
20671;SDS011;10495;50.922;4.760;2022-12-18T14:33:54;26.50;;;14.77;;
20671;SDS011;10495;50.922;4.760;2022-12-18T14:36:21;26.87;;;15.10;;
20671;SDS011;10495;50.922;4.760;2022-12-18T14:38:52;27.00;;;15.70;;
20671;SDS011;10495;50.922;4.760;2022-12-18T14:41:20;24.63;;;15.03;;
20671;SDS011;10495;50.922;4.760;2022-12-18T14:43:47;26.43;;;14.60;;
20671;SDS011;10495;50.922;4.760;2022-12-18T14:48:54;25.20;;;15.10;;
20671;SDS011;10495;50.922;4.760;2022-12-18T14:54:14;23.40;;;13.77;;
20671;SDS011;10495;50.922;4.760;2022-12-18T14:56:51;28.50;;;16.47;;
20671;SDS011;10495;50.922;4.760;2022-12-18T14:59:30;27.80;;;15.80;;
20671;SDS011;10495;50.922;4.760;2022-12-18T15:01:58;25.80;;;15.03;;
20671;SDS011;10495;50.922;4.760;2022-12-18T15:04:35;21.93;;;13.87;;
20671;SDS011;10495;50.922;4.760;2022-12-18T15:09:29;26.17;;;14.13;;
20671;SDS011;10495;50.922;4.760;2022-12-18T15:11:59;26.23;;;13.70;;
20671;SDS011;10495;50.922;4.760;2022-12-18T15:14:30;28.37;;;15.33;;
20671;SDS011;10495;50.922;4.760;2022-12-18T15:17:03;31.47;;;14.23;;
20671;SDS011;10495;50.922;4.760;2022-12-18T15:19:35;24.97;;;14.53;;
20671;SDS011;10495;50.922;4.760;2022-12-18T15:22:04;25.83;;;14.30;;
20671;SDS011;10495;50.922;4.760;2022-12-18T15:24:38;25.17;;;13.57;;
20671;SDS011;10495;50.922;4.760;2022-12-18T15:27:04;24.53;;;14.43;;
20671;SDS011;10495;50.922;4.760;2022-12-18T15:29:44;27.00;;;15.03;;
20671;SDS011;10495;50.922;4.760;2022-12-18T15:32:25;29.93;;;14.77;;
20671;SDS011;10495;50.922;4.760;2022-12-18T15:34:50;24.73;;;14.53;;
20671;SDS011;10495;50.922;4.760;2022-12-18T15:37:26;26.53;;;15.17;;
20671;SDS011;10495;50.922;4.760;2022-12-18T15:39:51;27.50;;;15.63;;
20671;SDS011;10495;50.922;4.760;2022-12-18T15:42:17;29.93;;;15.73;;
20671;SDS011;10495;50.922;4.760;2022-12-18T15:45:01;28.03;;;15.40;;
20671;SDS011;10495;50.922;4.760;2022-12-18T15:47:27;24.80;;;14.67;;
20671;SDS011;10495;50.922;4.760;2022-12-18T15:49:53;25.90;;;14.50;;
20671;SDS011;10495;50.922;4.760;2022-12-18T15:52:18;24.90;;;13.97;;
20671;SDS011;10495;50.922;4.760;2022-12-18T15:54:50;32.53;;;16.03;;
20671;SDS011;10495;50.922;4.760;2022-12-18T15:57:34;30.53;;;15.80;;
20671;SDS011;10495;50.922;4.760;2022-12-18T16:00:00;30.57;;;17.67;;
20671;SDS011;10495;50.922;4.760;2022-12-18T16:02:26;28.03;;;15.80;;
20671;SDS011;10495;50.922;4.760;2022-12-18T16:04:53;30.27;;;17.17;;
20671;SDS011;10495;50.922;4.760;2022-12-18T16:07:19;29.50;;;17.13;;
20671;SDS011;10495;50.922;4.760;2022-12-18T16:09:47;33.97;;;17.13;;
20671;SDS011;10495;50.922;4.760;2022-12-18T16:12:14;31.70;;;17.87;;
20671;SDS011;10495;50.922;4.760;2022-12-18T16:14:43;32.13;;;16.63;;
20671;SDS011;10495;50.922;4.760;2022-12-18T16:17:10;38.40;;;20.03;;
20671;SDS011;10495;50.922;4.760;2022-12-18T16:19:36;30.17;;;17.13;;
20671;SDS011;10495;50.922;4.760;2022-12-18T16:22:02;34.37;;;17.80;;
20671;SDS011;10495;50.922;4.760;2022-12-18T16:24:28;31.80;;;16.73;;
20671;SDS011;10495;50.922;4.760;2022-12-18T16:26:56;27.83;;;16.40;;
20671;SDS011;10495;50.922;4.760;2022-12-18T16:29:24;30.67;;;17.50;;
20671;SDS011;10495;50.922;4.760;2022-12-18T16:31:59;28.30;;;16.00;;
20671;SDS011;10495;50.922;4.760;2022-12-18T16:34:26;29.63;;;15.83;;